(°C)
-7°
-8°
-8°
-9°
-9°
-10°
-10°
(°C)
-15°
-15°
-15°
-15°
-16°
-16°
-16°
NNW
NNW
NNW
NNW
NNW
NNW
NW
(km/h)
21-37
19-35
18-33
17-32
16-29
13-28
11-24
(mm)
1
0
0
0
0
0
0
(%)
25
3
1
0
0
0
0

Wysokość słońca

/ 17.5°
sun-icon
UV 1
08:17
16:49
Ubywający Księżyc garbaty (198°)
18:04
09:38

METAR dla 51.82°N 39.23°E (UUOO)

Czas Warunki Temperatura/
Punkt rosy
Wiatr Widzialność Pogoda Chmury Ciśn. atm. Zmień Surowy
IFR -7°C / °C 350º 14kt 8000m Light Snow 1.00mm precipitation Vertical Visibility of 0ft. 1015 No Significant change. Runway 30: Dry snow, 26-50% contamination with 10mm, friction coefficient 0.45. UUOO 190830Z 35007MPS 8000 -SN BKN007 M07/M10 Q1015 R30/451045 NOSIG RMK QFE747
IFR -7°C / °C 340º 10kt 7000m Light Snow 1.00mm precipitation Vertical Visibility of 0ft. 1015 No Significant change. Runway 30: Dry snow, 26-50% contamination with 10mm, friction coefficient 0.45. UUOO 190800Z 34005MPS 7000 -SN OVC008 M07/M10 Q1015 R30/451045 NOSIG RMK QFE748
MVFR -7°C / °C 340º 10kt >10km Light Snow 1.00mm precipitation Vertical Visibility of 0ft. 1014 No Significant change. Runway 30: Dry snow, 26-50% contamination with 10mm, friction coefficient 0.45. UUOO 190730Z 34005MPS 9999 -SN OVC010 M07/M10 Q1014 R30/451045 NOSIG RMK QFE747
IFR -7°C / -9°C 350º 10kt >10km Light Snow 1.00mm precipitation Vertical Visibility of 0ft. 1014 No Significant change. Runway 30: Dry snow, 26-50% contamination with 10mm, friction coefficient 0.45. UUOO 190700Z 35005MPS 9999 -SN OVC008 M07/M09 Q1014 R30/451045 NOSIG RMK QFE747
MVFR -7°C / -9°C 350º 10kt Gust 19kt >10km Light Snow 1.00mm precipitation Vertical Visibility of 0ft. 1014 No Significant change. Runway 30: Dry snow, 26-50% contamination with 10mm, friction coefficient 0.45. UUOO 190630Z 35005G10MPS 9999 -SN OVC011 M07/M09 Q1014 R30/451045 NOSIG RMK QFE747
IFR -7°C / -8°C 350º 10kt 8000m Light Snow 1.00mm precipitation Vertical Visibility of 0ft. 1013 No Significant change. Runway 30: Dry snow, 26-50% contamination with 10mm, friction coefficient 0.45. UUOO 190600Z 35005MPS 8000 -SN OVC009 M07/M08 Q1013 R30/451045 NOSIG RMK QFE746
MVFR -7°C / -8°C 350º 10kt 9000m Light Snow 1.00mm precipitation Vertical Visibility of 0ft. 1013 No Significant change. Runway 30: Dry snow, 26-50% contamination with 10mm, friction coefficient 0.45. UUOO 190530Z 35005MPS 9000 -SN OVC012 M07/M08 Q1013 R30/451045 NOSIG RMK QFE746
IFR -6°C / -8°C 340º 12kt 3700m Light Snow 1.00mm precipitation Vertical Visibility of 0ft. 1012 No Significant change. Runway 30: Dry snow, 26-50% contamination with 5mm, friction coefficient 0.40. UUOO 190500Z 34006MPS 3700 -SN OVC008 M06/M08 Q1012 R30/450540 NOSIG RMK QFE746
IFR -6°C / -7°C 350º 10kt 3300m Light Snow 1.00mm precipitation Vertical Visibility of 0ft. 1012 Temporary: Visibility 1100. Snow . Broken Clouds 200ft. RMK QFE745 . Runway 30: Dry snow, 26-50% contamination with 5mm, friction coefficient 0.40. UUOO 190430Z 35005MPS 3300 -SN OVC006 M06/M07 Q1012 R30/450540 TEMPO 1100 SN BKN002 RMK QFE745
LIFR -6°C / -7°C 340º 10kt 1500m. Runway 30: Visual range is 2000m and decreasing. Snow 3.00mm precipitation Vertical Visibility of 0ft. 1012 Temporary: Visibility 1100. Snow . Broken Clouds 200ft. RMK QFE745 . Runway 30: Dry snow, 26-50% contamination with 5mm, friction coefficient 0.40. UUOO 190400Z 34005MPS 1500 1300NE R30/P2000D SN OVC003 M06/M07 Q1012 R30/450540 TEMPO 1100 SN BKN002 RMK QFE745
LIFR -6°C / -7°C 350º 10kt 2300m Light Snow 1.00mm precipitation Vertical Visibility of 0ft. 1011 No Significant change. Runway 30: Dry snow, 26-50% contamination with 5mm, friction coefficient 0.40. UUOO 190330Z 35005MPS 2300 -SN OVC003 M06/M07 Q1011 R30/450540 NOSIG RMK QFE745
MVFR -6°C / -8°C 350º 14kt >10km Light Snow blowing Snow 1.00mm precipitation Vertical Visibility of 0ft. 1011 No Significant change. Runway 30: Dry snow, 26-50% contamination with 5mm, friction coefficient 0.40. UUOO 190230Z 35007MPS 9999 -SN BLSN OVC015 M06/M08 Q1011 R30/450540 NOSIG RMK QFE744
IFR -6°C / -8°C 350º 12kt >10km Light Snow 1.00mm precipitation Vertical Visibility of 0ft. 1010 No Significant change. Runway 30: Wet snow, 51-100% contamination with 5mm, friction coefficient 0.35. UUOO 190200Z 35006MPS 9999 -SN OVC009 M06/M08 Q1010 R30/590535 NOSIG RMK QFE744
IFR -6°C / -7°C 10º 10kt >10km - Overcast 900ft 1010 No Significant change. Runway 30: Wet snow, 51-100% contamination with 5mm, friction coefficient 0.35. UUOO 190130Z 01005MPS 9999 OVC009 M06/M07 Q1010 R30/590535 NOSIG RMK QFE744
IFR -6°C / -7°C 10º 10kt >10km Light Snow 1.00mm precipitation Vertical Visibility of 0ft. 1010 No Significant change. Runway 30: Wet snow, 51-100% contamination with 5mm, friction coefficient 0.35. UUOO 190100Z 01005MPS 9999 -SN OVC009 M06/M07 Q1010 R30/590535 NOSIG RMK QFE744
IFR -5°C / -7°C 360º 12kt 9000m Light Snow blowing Snow 1.00mm precipitation Vertical Visibility of 0ft. 1010 No Significant change. Runway 30: Wet snow, 51-100% contamination with 5mm, friction coefficient 0.35. UUOO 190030Z 36006MPS 9000 -SN BLSN OVC008 M05/M07 Q1010 R30/590535 NOSIG RMK QFE744
IFR -5°C / -6°C 350º 12kt 5000m Light Snow 1.00mm precipitation Vertical Visibility of 0ft. 1009 No Significant change. Runway 30: Wet snow, 51-100% contamination with 5mm, friction coefficient 0.35. UUOO 190000Z 35006MPS 5000 -SN OVC005 M05/M06 Q1009 R30/590535 NOSIG RMK QFE743
IFR -5°C / -6°C 350º 12kt 5000m Light Snow 1.00mm precipitation Vertical Visibility of 0ft. 1009 No Significant change. Runway 30: Wet snow, 51-100% contamination with 5mm, friction coefficient 0.35. UUOO 182330Z 35006MPS 5000 -SN OVC008 M05/M06 Q1009 R30/590535 NOSIG RMK QFE743
IFR -5°C / -6°C 350º 14kt 4700m Light Snow blowing Snow 1.00mm precipitation Vertical Visibility of 0ft. 1009 No Significant change. Runway 30: Wet snow, 51-100% contamination with 5mm, friction coefficient 0.35. UUOO 182300Z 35007MPS 4700 -SN BLSN OVC007 M05/M06 Q1009 R30/590535 NOSIG RMK QFE743
IFR -4°C / -5°C 350º 10kt 4000m Light Snow 1.00mm precipitation Vertical Visibility of 0ft. 1008 No Significant change. Runway 30: Wet snow, 51-100% contamination with 5mm, friction coefficient 0.35. UUOO 182230Z 35005MPS 4000 -SN OVC006 M04/M05 Q1008 R30/590535 NOSIG RMK QFE743
IFR -4°C / -5°C 10º 10kt 9000m Light Snow 1.00mm precipitation Vertical Visibility of 0ft. 1008 No Significant change. Runway 30: Wet snow, 51-100% contamination with 5mm, friction coefficient 0.35. UUOO 182200Z 01005MPS 9000 -SN OVC008 M04/M05 Q1008 R30/590535 NOSIG RMK QFE742
IFR -3°C / -4°C 350º 16kt Gust 25kt 7000m Light Snow blowing Snow 1.00mm precipitation Vertical Visibility of 0ft. 1007 No Significant change. Runway 30: Wet snow, 51-100% contamination with 5mm, friction coefficient 0.35. UUOO 182130Z 35008G13MPS 7000 -SN BLSN OVC008 M03/M04 Q1007 R30/590535 NOSIG RMK QFE742
LIFR -3°C / -4°C 350º 14kt Gust 23kt 2600m Light Snow blowing Snow 1.00mm precipitation Vertical Visibility of 0ft. 1006 No Significant change. Runway 30: Wet snow, 51-100% contamination with 5mm, friction coefficient 0.35. UUOO 182100Z 35007G12MPS 2600 -SN BLSN OVC004 M03/M04 Q1006 R30/590535 NOSIG RMK QFE741
LIFR -2°C / -2°C 360º 12kt 3400m Light Snow 1.00mm precipitation Vertical Visibility of 0ft. 1006 No Significant change. Runway 30: Wet snow, 51-100% contamination with 5mm, friction coefficient 0.35. UUOO 182030Z 36006MPS 3400 -SN OVC004 M02/M02 Q1006 R30/590535 NOSIG RMK QFE741

IFR

-7°C / °C

[Więcej]
Wiatr 350º 14kt
Widzialność 8000m
Pogoda Light Snow 1.00mm precipitation
Chmury Vertical Visibility of 0ft.
Ciśn. atm. 1015
Zmień No Significant change. Runway 30: Dry snow, 26-50% contamination with 10mm, friction coefficient 0.45.
Surowy UUOO 190830Z 35007MPS 8000 -SN BKN007 M07/M10 Q1015 R30/451045 NOSIG RMK QFE747

IFR

-7°C / °C

[Więcej]
Wiatr 340º 10kt
Widzialność 7000m
Pogoda Light Snow 1.00mm precipitation
Chmury Vertical Visibility of 0ft.
Ciśn. atm. 1015
Zmień No Significant change. Runway 30: Dry snow, 26-50% contamination with 10mm, friction coefficient 0.45.
Surowy UUOO 190800Z 34005MPS 7000 -SN OVC008 M07/M10 Q1015 R30/451045 NOSIG RMK QFE748

MVFR

-7°C / °C

[Więcej]
Wiatr 340º 10kt
Widzialność >10km
Pogoda Light Snow 1.00mm precipitation
Chmury Vertical Visibility of 0ft.
Ciśn. atm. 1014
Zmień No Significant change. Runway 30: Dry snow, 26-50% contamination with 10mm, friction coefficient 0.45.
Surowy UUOO 190730Z 34005MPS 9999 -SN OVC010 M07/M10 Q1014 R30/451045 NOSIG RMK QFE747

IFR

-7°C / -9°C

[Więcej]
Wiatr 350º 10kt
Widzialność >10km
Pogoda Light Snow 1.00mm precipitation
Chmury Vertical Visibility of 0ft.
Ciśn. atm. 1014
Zmień No Significant change. Runway 30: Dry snow, 26-50% contamination with 10mm, friction coefficient 0.45.
Surowy UUOO 190700Z 35005MPS 9999 -SN OVC008 M07/M09 Q1014 R30/451045 NOSIG RMK QFE747

MVFR

-7°C / -9°C

[Więcej]
Wiatr 350º 10kt Gust 19kt
Widzialność >10km
Pogoda Light Snow 1.00mm precipitation
Chmury Vertical Visibility of 0ft.
Ciśn. atm. 1014
Zmień No Significant change. Runway 30: Dry snow, 26-50% contamination with 10mm, friction coefficient 0.45.
Surowy UUOO 190630Z 35005G10MPS 9999 -SN OVC011 M07/M09 Q1014 R30/451045 NOSIG RMK QFE747

IFR

-7°C / -8°C

[Więcej]
Wiatr 350º 10kt
Widzialność 8000m
Pogoda Light Snow 1.00mm precipitation
Chmury Vertical Visibility of 0ft.
Ciśn. atm. 1013
Zmień No Significant change. Runway 30: Dry snow, 26-50% contamination with 10mm, friction coefficient 0.45.
Surowy UUOO 190600Z 35005MPS 8000 -SN OVC009 M07/M08 Q1013 R30/451045 NOSIG RMK QFE746

MVFR

-7°C / -8°C

[Więcej]
Wiatr 350º 10kt
Widzialność 9000m
Pogoda Light Snow 1.00mm precipitation
Chmury Vertical Visibility of 0ft.
Ciśn. atm. 1013
Zmień No Significant change. Runway 30: Dry snow, 26-50% contamination with 10mm, friction coefficient 0.45.
Surowy UUOO 190530Z 35005MPS 9000 -SN OVC012 M07/M08 Q1013 R30/451045 NOSIG RMK QFE746

IFR

-6°C / -8°C

[Więcej]
Wiatr 340º 12kt
Widzialność 3700m
Pogoda Light Snow 1.00mm precipitation
Chmury Vertical Visibility of 0ft.
Ciśn. atm. 1012
Zmień No Significant change. Runway 30: Dry snow, 26-50% contamination with 5mm, friction coefficient 0.40.
Surowy UUOO 190500Z 34006MPS 3700 -SN OVC008 M06/M08 Q1012 R30/450540 NOSIG RMK QFE746

IFR

-6°C / -7°C

[Więcej]
Wiatr 350º 10kt
Widzialność 3300m
Pogoda Light Snow 1.00mm precipitation
Chmury Vertical Visibility of 0ft.
Ciśn. atm. 1012
Zmień Temporary: Visibility 1100. Snow . Broken Clouds 200ft. RMK QFE745 . Runway 30: Dry snow, 26-50% contamination with 5mm, friction coefficient 0.40.
Surowy UUOO 190430Z 35005MPS 3300 -SN OVC006 M06/M07 Q1012 R30/450540 TEMPO 1100 SN BKN002 RMK QFE745

LIFR

-6°C / -7°C

[Więcej]
Wiatr 340º 10kt
Widzialność 1500m. Runway 30: Visual range is 2000m and decreasing.
Pogoda Snow 3.00mm precipitation
Chmury Vertical Visibility of 0ft.
Ciśn. atm. 1012
Zmień Temporary: Visibility 1100. Snow . Broken Clouds 200ft. RMK QFE745 . Runway 30: Dry snow, 26-50% contamination with 5mm, friction coefficient 0.40.
Surowy UUOO 190400Z 34005MPS 1500 1300NE R30/P2000D SN OVC003 M06/M07 Q1012 R30/450540 TEMPO 1100 SN BKN002 RMK QFE745

LIFR

-6°C / -7°C

[Więcej]
Wiatr 350º 10kt
Widzialność 2300m
Pogoda Light Snow 1.00mm precipitation
Chmury Vertical Visibility of 0ft.
Ciśn. atm. 1011
Zmień No Significant change. Runway 30: Dry snow, 26-50% contamination with 5mm, friction coefficient 0.40.
Surowy UUOO 190330Z 35005MPS 2300 -SN OVC003 M06/M07 Q1011 R30/450540 NOSIG RMK QFE745

MVFR

-6°C / -8°C

[Więcej]
Wiatr 350º 14kt
Widzialność >10km
Pogoda Light Snow blowing Snow 1.00mm precipitation
Chmury Vertical Visibility of 0ft.
Ciśn. atm. 1011
Zmień No Significant change. Runway 30: Dry snow, 26-50% contamination with 5mm, friction coefficient 0.40.
Surowy UUOO 190230Z 35007MPS 9999 -SN BLSN OVC015 M06/M08 Q1011 R30/450540 NOSIG RMK QFE744

IFR

-6°C / -8°C

[Więcej]
Wiatr 350º 12kt
Widzialność >10km
Pogoda Light Snow 1.00mm precipitation
Chmury Vertical Visibility of 0ft.
Ciśn. atm. 1010
Zmień No Significant change. Runway 30: Wet snow, 51-100% contamination with 5mm, friction coefficient 0.35.
Surowy UUOO 190200Z 35006MPS 9999 -SN OVC009 M06/M08 Q1010 R30/590535 NOSIG RMK QFE744

IFR

-6°C / -7°C

[Więcej]
Wiatr 10º 10kt
Widzialność >10km
Pogoda -
Chmury Overcast 900ft
Ciśn. atm. 1010
Zmień No Significant change. Runway 30: Wet snow, 51-100% contamination with 5mm, friction coefficient 0.35.
Surowy UUOO 190130Z 01005MPS 9999 OVC009 M06/M07 Q1010 R30/590535 NOSIG RMK QFE744

IFR

-6°C / -7°C

[Więcej]
Wiatr 10º 10kt
Widzialność >10km
Pogoda Light Snow 1.00mm precipitation
Chmury Vertical Visibility of 0ft.
Ciśn. atm. 1010
Zmień No Significant change. Runway 30: Wet snow, 51-100% contamination with 5mm, friction coefficient 0.35.
Surowy UUOO 190100Z 01005MPS 9999 -SN OVC009 M06/M07 Q1010 R30/590535 NOSIG RMK QFE744

IFR

-5°C / -7°C

[Więcej]
Wiatr 360º 12kt
Widzialność 9000m
Pogoda Light Snow blowing Snow 1.00mm precipitation
Chmury Vertical Visibility of 0ft.
Ciśn. atm. 1010
Zmień No Significant change. Runway 30: Wet snow, 51-100% contamination with 5mm, friction coefficient 0.35.
Surowy UUOO 190030Z 36006MPS 9000 -SN BLSN OVC008 M05/M07 Q1010 R30/590535 NOSIG RMK QFE744

IFR

-5°C / -6°C

[Więcej]
Wiatr 350º 12kt
Widzialność 5000m
Pogoda Light Snow 1.00mm precipitation
Chmury Vertical Visibility of 0ft.
Ciśn. atm. 1009
Zmień No Significant change. Runway 30: Wet snow, 51-100% contamination with 5mm, friction coefficient 0.35.
Surowy UUOO 190000Z 35006MPS 5000 -SN OVC005 M05/M06 Q1009 R30/590535 NOSIG RMK QFE743

IFR

-5°C / -6°C

[Więcej]
Wiatr 350º 12kt
Widzialność 5000m
Pogoda Light Snow 1.00mm precipitation
Chmury Vertical Visibility of 0ft.
Ciśn. atm. 1009
Zmień No Significant change. Runway 30: Wet snow, 51-100% contamination with 5mm, friction coefficient 0.35.
Surowy UUOO 182330Z 35006MPS 5000 -SN OVC008 M05/M06 Q1009 R30/590535 NOSIG RMK QFE743

IFR

-5°C / -6°C

[Więcej]
Wiatr 350º 14kt
Widzialność 4700m
Pogoda Light Snow blowing Snow 1.00mm precipitation
Chmury Vertical Visibility of 0ft.
Ciśn. atm. 1009
Zmień No Significant change. Runway 30: Wet snow, 51-100% contamination with 5mm, friction coefficient 0.35.
Surowy UUOO 182300Z 35007MPS 4700 -SN BLSN OVC007 M05/M06 Q1009 R30/590535 NOSIG RMK QFE743

IFR

-4°C / -5°C

[Więcej]
Wiatr 350º 10kt
Widzialność 4000m
Pogoda Light Snow 1.00mm precipitation
Chmury Vertical Visibility of 0ft.
Ciśn. atm. 1008
Zmień No Significant change. Runway 30: Wet snow, 51-100% contamination with 5mm, friction coefficient 0.35.
Surowy UUOO 182230Z 35005MPS 4000 -SN OVC006 M04/M05 Q1008 R30/590535 NOSIG RMK QFE743

IFR

-4°C / -5°C

[Więcej]
Wiatr 10º 10kt
Widzialność 9000m
Pogoda Light Snow 1.00mm precipitation
Chmury Vertical Visibility of 0ft.
Ciśn. atm. 1008
Zmień No Significant change. Runway 30: Wet snow, 51-100% contamination with 5mm, friction coefficient 0.35.
Surowy UUOO 182200Z 01005MPS 9000 -SN OVC008 M04/M05 Q1008 R30/590535 NOSIG RMK QFE742

IFR

-3°C / -4°C

[Więcej]
Wiatr 350º 16kt Gust 25kt
Widzialność 7000m
Pogoda Light Snow blowing Snow 1.00mm precipitation
Chmury Vertical Visibility of 0ft.
Ciśn. atm. 1007
Zmień No Significant change. Runway 30: Wet snow, 51-100% contamination with 5mm, friction coefficient 0.35.
Surowy UUOO 182130Z 35008G13MPS 7000 -SN BLSN OVC008 M03/M04 Q1007 R30/590535 NOSIG RMK QFE742

LIFR

-3°C / -4°C

[Więcej]
Wiatr 350º 14kt Gust 23kt
Widzialność 2600m
Pogoda Light Snow blowing Snow 1.00mm precipitation
Chmury Vertical Visibility of 0ft.
Ciśn. atm. 1006
Zmień No Significant change. Runway 30: Wet snow, 51-100% contamination with 5mm, friction coefficient 0.35.
Surowy UUOO 182100Z 35007G12MPS 2600 -SN BLSN OVC004 M03/M04 Q1006 R30/590535 NOSIG RMK QFE741

LIFR

-2°C / -2°C

[Więcej]
Wiatr 360º 12kt
Widzialność 3400m
Pogoda Light Snow 1.00mm precipitation
Chmury Vertical Visibility of 0ft.
Ciśn. atm. 1006
Zmień No Significant change. Runway 30: Wet snow, 51-100% contamination with 5mm, friction coefficient 0.35.
Surowy UUOO 182030Z 36006MPS 3400 -SN OVC004 M02/M02 Q1006 R30/590535 NOSIG RMK QFE741

TAF dla 51.82°N 39.23°E (UUOO)

From till


From till Wind 350º 10kt. Visibility 6000m. Light Snow . Overcast 800ft.

Surowy: TAF UUOO 190800Z 1909/1918 35005MPS 6000 -SN OVC008

Radar i prognoza opadów na teraz dla 51.82°N 39.23°E

Mżawka
Lekkie
Umiarkowane
Intensywne
Bardzo Intensywne
Grad

Wskaźnik lokalizacji jest umieszczony na 51.82°N 39.23°E. Animacja przedstawia radar opadów dla ostatniej godziny, jak również 1h prognozę pogody. Mżawka i lekkie opady mogą być niewidoczne na radarze. Intensywność opadów jest oznaczona kolorami od jasnoniebieskiego do ciemnofioletowego.

Aktualne zdjęcia satelitarne i zdjęcia opadów deszczu dla 51.82°N 39.23°E

Wskaźnik lokalizacji znajduje się na 51.82°N 39.23°E. [Więcej]

Obraz satelitarny w czasie rzeczywistym łączy światło widzialne w ciągu dnia z promieniowaniem podczerwonym w nocy. W nocy obraz nie jest ciemny, ponieważ promieniowanie podczerwone może wykrywać różnice temperatur. Niestety niskie chmury i mgłę trudno odróżnić od temperatury gruntu, przez co mogą być prawie niewidoczne w nocy. Zdjęcia satelitarne Meteosat dla Europy są aktualizowane w czasie rzeczywistym co 5 minut. Obrazy GOES-16/GOES-17 (Ameryka Północna i Południowa) oraz Himawari (Azja) są aktualizowane co 10 minut.

Prawa autorskie 2022 EUMETSAT / meteoblue. / Prawa autorskie 2022 meteoblue